Accueil
METAR-TAF:

METAR-TAF

Aéroports :

Aéroport international de Damas

Damas, Syrie

latitude: 33-25N, longitude: 036-31E, altitude: 608 m

Observation

Le bulletin a été fait il y a 14 minutes, à 03:00 UTC
Vent 6 kt de nord
Température 5°C
Humidité 60%
Pression 1020 hPa
Visibilité 10 km ou plus
pas de nuages en-dessous de 1500 mètres et pas de cumulonimbus.

METAR: OSDI 120300Z 35006KT CAVOK 05/M02 Q1020

Heure: 05:14 (03:14 UTC)

Prévision

Prévision valable du 12 à 00 UTC au 13 à 06 UTC
Vent 3 kt de direction variable
Visibilité 10 km ou plus
pas de nuages en-dessous de 1500 mètres et pas de cumulonimbus.
Temporairement
du 12 à 09 UTC au 12 à 18 UTC
Vent 10 kt de sud-ouest
Visibilité 10 km ou plus
Quelques nuages à une hauteur de 3000 ft

TAF: OSDI 1200/1306 VRB03KT CAVOK TEMPO 1209/1218 22010KT 9999 FEW030

Observations et prévisions météorologiques de plus de 4000 aéroports (messages METAR et TAF).

Les stations disponibles sont représentées par des disques jaunes et rouges sur la carte.

Passer la souris dessus pour voir le nom de la station.

Cliquer dessus pour voir les observations et prévisions météorologiques.

Pour changer de carte: cliquez sur les boutons verts avec une croix noire pour zoomer, sur le bouton vert avec un tiret pour effectuer un zoom arrière, ou sur les flèches vertes pour les cartes adjacentes.


METAR-TAF: